ADDS METAR Data INFO
IDs: Format: Raw Decoded Include TAF

Data at: 0308 UTC 21 Oct 2017

KPIE 210253Z AUTO 08008G16KT 10SM CLR 26/20 A3010 RMK AO2 SLP193 T02560200 51016
KPIE 210153Z 07010KT 10SM CLR 27/19 A3009 RMK AO2 SLP190 T02670194
KPIE 210053Z 08008KT 10SM CLR 27/20 A3007 RMK AO2 SLP184 T02670200
KPIE 202353Z 06011G16KT 10SM CLR 28/19 A3006 RMK AO2 SLP177 T02780194 10317 20278 53007
KPIE 202253Z 06011G19KT 10SM CLR 28/19 A3004 RMK AO2 SLP173 T02830194
KPIE 202153Z 06007KT 10SM CLR 29/20 A3003 RMK AO2 SLP170 T02940200
KPIE 202053Z 07011KT 10SM FEW049 BKN065 29/20 A3003 RMK AO2 SLP170 T02940200 56012
KPIE 201953Z 07009G17KT 10SM SCT045 30/20 A3004 RMK AO2 SLP173 T03000200
KPIE 201853Z AUTO 06010KT 10SM SCT045 31/20 A3004 RMK AO2 SLP173 T03110200
KPIE 201753Z 07011G16KT 10SM FEW038 31/20 A3007 RMK AO2 SLP181 T03060200 10306 20233 58018
KPIE 201653Z 07011G15KT 10SM FEW032 30/21 A3009 RMK AO2 SLP190 T03000206
KPIE 201553Z 07009G15KT 10SM FEW032 29/21 A3011 RMK AO2 SLP196 T02890206
KPIE 201453Z 06011KT 10SM CLR 28/21 A3012 RMK AO2 SLP200 T02780206 50004
KPIE 201353Z 06008KT 10SM CLR 26/22 A3013 RMK AO2 SLP202 T02610217
KPIE 201253Z 04010KT 10SM CLR 24/22 A3012 RMK AO2 SLP199 T02440217
KPIE 201153Z 06008KT 10SM FEW008 23/22 A3011 RMK AO2 SLP196 T02330217 10244 20233 51009
KPIE 201053Z 04007KT 10SM FEW009 23/22 A3010 RMK AO2 SLP193 T02330217
KPIE 200953Z 04007KT 10SM CLR 23/22 A3009 RMK AO2 SLP190 T02330217
KPIE 200853Z AUTO 03008KT 10SM CLR 23/22 A3008 RMK AO2 SLP187 T02330217 56006
KPIE 200753Z AUTO 04009KT 10SM CLR 24/22 A3009 RMK AO2 SLP188 T02390217
KPIE 200653Z AUTO 05007KT 10SM FEW027 24/22 A3009 RMK AO2 SLP190 T02390217
KPIE 200553Z AUTO 05007KT 10SM FEW012 24/22 A3010 RMK AO2 SLP193 T02390217 10272 20239 50000
KPIE 200453Z AUTO 05009KT 10SM CLR 24/22 A3011 RMK AO2 SLP195 T02440217 403110217
KPIE 200353Z AUTO 05010KT 10SM CLR 25/22 A3011 RMK AO2 SLP194 T02500217
KPIE 200253Z AUTO 05010KT 10SM CLR 26/22 A3010 RMK AO2 SLP193 T02560217 53014
KPIE 200153Z 06012G18KT 10SM CLR 26/22 A3009 RMK AO2 SLP188 T02610217
KPIE 200053Z 04014G20KT 10SM CLR 26/21 A3007 RMK AO2 SLP182 T02610211
KPIE 192353Z 04011KT 10SM FEW045 BKN060 27/22 A3006 RMK AO2 SLP179 T02720222 10311 20272 53012
KPIE 192253Z 05010G15KT 10SM SCT045 29/22 A3004 RMK AO2 SLP170 T02890217
KPIE 192153Z 03012G19KT 10SM SCT043 30/22 A3003 RMK AO2 SLP167 T03000217
KPIE 192053Z 04008KT 10SM SCT040 31/22 A3003 RMK AO2 SLP167 T03060217 56014
KPIE 191953Z 02008KT 10SM SCT044 29/22 A3003 RMK AO2 SLP168 T02940217
KPIE 191853Z AUTO 02007KT 10SM SCT035 31/22 A3004 RMK AO2 SLP172 T03110217
KPIE 191753Z 02007KT 10SM SCT032 30/22 A3007 RMK AO2 SLP180 T03000222 10306 20222 58017
KPIE 191653Z 04008KT 10SM SCT024 29/22 A3010 RMK AO2 SLP191 T02940217
KPIE 191553Z 02009KT 10SM SCT024 28/22 A3011 RMK AO2 SLP196 T02830217